createdAt,value
2022-09-04T00:01:04.336Z,15.70
2022-09-04T00:03:39.533Z,15.66
2022-09-04T00:06:12.039Z,15.74
2022-09-04T00:08:49.671Z,15.79
2022-09-04T00:11:30.775Z,15.88
2022-09-04T00:14:02.302Z,15.88
2022-09-04T00:16:34.034Z,15.85
2022-09-04T00:19:04.986Z,15.62
2022-09-04T00:21:36.532Z,15.62
2022-09-04T00:24:06.555Z,15.54
2022-09-04T00:26:42.413Z,15.60
2022-09-04T00:29:15.287Z,15.63
2022-09-04T00:31:47.177Z,15.64
2022-09-04T00:34:24.712Z,15.41
2022-09-04T00:36:54.815Z,15.48
2022-09-04T00:39:25.202Z,15.23
2022-09-04T00:42:01.060Z,15.20
2022-09-04T00:44:48.896Z,15.33
2022-09-04T00:47:40.075Z,15.28
2022-09-04T00:50:43.263Z,15.40
2022-09-04T00:53:23.272Z,15.27
2022-09-04T00:55:59.635Z,15.42
2022-09-04T00:58:35.271Z,15.18
2022-09-04T01:01:05.241Z,14.99
2022-09-04T01:03:44.851Z,15.23
2022-09-04T01:06:20.061Z,15.03
2022-09-04T01:09:05.663Z,15.04
2022-09-04T01:11:41.500Z,14.94
2022-09-04T01:14:18.024Z,14.88
2022-09-04T01:16:48.935Z,14.86
2022-09-04T01:19:29.923Z,14.71
2022-09-04T01:22:17.992Z,14.98
2022-09-04T01:25:00.679Z,15.20
2022-09-04T01:27:32.260Z,14.90
2022-09-04T01:30:05.745Z,14.76
2022-09-04T01:32:43.239Z,14.76
2022-09-04T01:35:18.707Z,15.03
2022-09-04T01:38:00.788Z,14.68
2022-09-04T01:40:37.070Z,14.88
2022-09-04T01:43:10.845Z,14.86
2022-09-04T01:45:49.798Z,14.64
2022-09-04T01:48:23.231Z,14.67
2022-09-04T01:50:54.818Z,14.54
2022-09-04T01:53:26.415Z,14.55
2022-09-04T01:56:00.649Z,14.71
2022-09-04T01:58:35.284Z,14.47
2022-09-04T02:01:09.000Z,14.76
2022-09-04T02:03:41.370Z,14.78
2022-09-04T02:06:16.627Z,14.67
2022-09-04T02:09:10.813Z,14.45
2022-09-04T02:11:42.281Z,14.33
2022-09-04T02:14:19.633Z,14.58
2022-09-04T02:16:58.862Z,14.38
2022-09-04T02:19:38.491Z,14.39
2022-09-04T02:22:15.595Z,14.14
2022-09-04T02:24:49.307Z,14.21
2022-09-04T02:27:21.871Z,14.39
2022-09-04T02:29:54.642Z,14.43
2022-09-04T02:32:27.089Z,14.36
2022-09-04T02:35:00.615Z,14.28
2022-09-04T02:37:34.715Z,14.08
2022-09-04T02:40:11.912Z,14.13
2022-09-04T02:42:45.965Z,13.95
2022-09-04T02:45:21.154Z,13.87
2022-09-04T02:47:53.185Z,13.70
2022-09-04T02:50:46.119Z,13.57
2022-09-04T02:53:21.954Z,13.70
2022-09-04T02:55:59.324Z,13.69
2022-09-04T02:58:33.657Z,13.74
2022-09-04T03:01:06.299Z,13.97
2022-09-04T03:03:38.999Z,14.08
2022-09-04T03:06:11.195Z,13.89
2022-09-04T03:08:42.595Z,14.19
2022-09-04T03:11:16.994Z,14.00
2022-09-04T03:13:50.779Z,14.27
2022-09-04T03:16:24.012Z,13.89
2022-09-04T03:19:03.752Z,14.03
2022-09-04T03:21:41.818Z,14.24
2022-09-04T03:24:14.971Z,14.00
2022-09-04T03:26:43.396Z,13.80
2022-09-04T03:29:15.373Z,13.90
2022-09-04T03:31:51.762Z,13.95
2022-09-04T03:34:38.570Z,13.61
2022-09-04T03:37:18.405Z,13.61
2022-09-04T03:39:55.339Z,13.60
2022-09-04T03:42:29.120Z,13.77
2022-09-04T03:45:05.235Z,13.84
2022-09-04T03:47:40.920Z,13.65
2022-09-04T03:50:17.015Z,13.72
2022-09-04T03:52:51.958Z,13.61
2022-09-04T03:55:41.045Z,13.83
2022-09-04T03:58:18.611Z,13.66
2022-09-04T04:00:57.182Z,13.61
2022-09-04T04:03:37.703Z,13.73
2022-09-04T04:06:15.402Z,13.46
2022-09-04T04:09:13.729Z,13.38
2022-09-04T04:11:55.840Z,13.33
2022-09-04T04:14:38.642Z,13.51
2022-09-04T04:17:20.510Z,13.57
2022-09-04T04:20:05.664Z,13.40
2022-09-04T04:22:52.839Z,13.21
2022-09-04T04:25:52.201Z,13.14
2022-09-04T04:28:31.600Z,13.06
2022-09-04T04:31:09.089Z,13.43
2022-09-04T04:33:43.770Z,13.12
2022-09-04T04:36:20.723Z,13.10
2022-09-04T04:38:58.246Z,13.46
2022-09-04T04:41:54.171Z,13.32
2022-09-04T04:44:47.127Z,13.51
2022-09-04T04:47:23.166Z,13.53
2022-09-04T04:49:59.759Z,13.40
2022-09-04T04:52:42.071Z,13.41
2022-09-04T04:55:21.296Z,13.45
2022-09-04T04:58:15.406Z,13.33
2022-09-04T05:00:45.474Z,13.29
2022-09-04T05:03:19.052Z,13.37
2022-09-04T05:05:55.160Z,13.25
2022-09-04T05:08:39.877Z,13.57
2022-09-04T05:11:13.724Z,13.69
2022-09-04T05:13:48.689Z,13.71
2022-09-04T05:16:23.247Z,13.74
2022-09-04T05:18:57.144Z,13.81
2022-09-04T05:21:32.205Z,13.84
2022-09-04T05:24:05.917Z,13.90
2022-09-04T05:26:38.108Z,13.95
2022-09-04T05:29:12.212Z,14.12
2022-09-04T05:31:46.212Z,13.96
2022-09-04T05:34:20.001Z,13.96
2022-09-04T05:36:58.586Z,14.13
2022-09-04T05:39:30.953Z,14.34
2022-09-04T05:42:17.407Z,14.61
2022-09-04T05:44:55.590Z,14.75
2022-09-04T05:47:31.319Z,14.78
2022-09-04T05:50:18.439Z,15.06
2022-09-04T05:53:16.871Z,15.06
2022-09-04T05:55:56.936Z,15.39
2022-09-04T05:58:35.258Z,15.38
2022-09-04T06:01:13.475Z,15.45
2022-09-04T06:03:56.911Z,15.38
2022-09-04T06:06:29.931Z,15.84
2022-09-04T06:09:34.275Z,15.88
2022-09-04T06:12:19.496Z,15.70
2022-09-04T06:15:05.166Z,15.70
2022-09-04T06:17:43.284Z,16.07
2022-09-04T06:20:40.835Z,15.92
2022-09-04T06:23:16.670Z,16.25
2022-09-04T06:26:01.904Z,17.17
2022-09-04T06:29:13.572Z,18.21
2022-09-04T06:32:04.339Z,17.85
2022-09-04T06:34:47.723Z,17.66
2022-09-04T06:37:21.204Z,16.93
2022-09-04T06:40:00.178Z,16.76
2022-09-04T06:42:39.046Z,17.01
2022-09-04T06:45:16.960Z,16.72
2022-09-04T06:47:56.070Z,16.94
2022-09-04T06:50:28.487Z,16.66
2022-09-04T06:53:06.928Z,16.54
2022-09-04T06:55:42.492Z,16.33
2022-09-04T06:58:23.484Z,16.43
2022-09-04T07:00:56.900Z,16.20
2022-09-04T07:03:35.782Z,16.46
2022-09-04T07:06:10.083Z,16.54
2022-09-04T07:08:47.923Z,16.80
2022-09-04T07:11:23.616Z,16.89
2022-09-04T07:14:11.680Z,16.82
2022-09-04T07:16:43.176Z,17.17
2022-09-04T07:19:46.088Z,17.07
2022-09-04T07:22:29.770Z,16.97
2022-09-04T07:25:13.385Z,17.29
2022-09-04T07:27:52.667Z,17.72
2022-09-04T07:30:22.632Z,17.31
2022-09-04T07:32:54.978Z,17.56
2022-09-04T07:35:29.562Z,17.56
2022-09-04T07:38:00.303Z,17.90
2022-09-04T07:40:33.587Z,17.72
2022-09-04T07:43:07.594Z,17.85
2022-09-04T07:45:38.641Z,17.84
2022-09-04T07:48:16.734Z,18.28
2022-09-04T07:50:55.319Z,18.48
2022-09-04T07:53:35.678Z,18.66
2022-09-04T07:56:07.877Z,18.90
2022-09-04T07:58:50.363Z,18.90
2022-09-04T08:01:28.077Z,19.06
2022-09-04T08:04:11.856Z,19.03
2022-09-04T08:06:46.122Z,19.08
2022-09-04T08:09:47.717Z,19.45
2022-09-04T08:12:40.294Z,19.37
2022-09-04T08:15:15.765Z,19.46
2022-09-04T08:18:11.213Z,19.62
2022-09-04T08:20:46.453Z,19.63
2022-09-04T08:23:24.482Z,19.84
2022-09-04T08:25:56.426Z,20.13
2022-09-04T08:28:36.395Z,20.26
2022-09-04T08:31:09.009Z,20.23
2022-09-04T08:34:08.818Z,20.50
2022-09-04T08:36:45.399Z,20.38
2022-09-04T08:39:16.739Z,20.55
2022-09-04T08:42:20.327Z,20.61
2022-09-04T08:45:25.420Z,20.79
2022-09-04T08:48:19.186Z,20.87
2022-09-04T08:51:18.479Z,21.21
2022-09-04T08:54:08.092Z,21.07
2022-09-04T08:56:38.934Z,21.33
2022-09-04T09:00:06.695Z,21.17
2022-09-04T09:03:16.713Z,21.40
2022-09-04T09:06:32.305Z,21.49
2022-09-04T09:09:53.820Z,21.59
2022-09-04T09:13:04.636Z,21.51
2022-09-04T09:16:03.154Z,21.60
2022-09-04T09:18:42.809Z,21.73
2022-09-04T09:21:12.262Z,22.03
2022-09-04T09:23:46.155Z,22.05
2022-09-04T09:26:26.479Z,21.74
2022-09-04T09:29:31.946Z,22.13
2022-09-04T09:32:36.824Z,22.25
2022-09-04T09:35:33.575Z,22.32
2022-09-04T09:38:28.050Z,22.51
2022-09-04T09:41:39.829Z,22.57
2022-09-04T09:44:23.934Z,22.61
2022-09-04T09:47:22.715Z,22.77
2022-09-04T09:50:20.524Z,22.77
2022-09-04T09:53:21.940Z,22.71
2022-09-04T09:56:09.482Z,22.76
2022-09-04T09:59:01.899Z,23.07
2022-09-04T10:01:52.230Z,23.04
2022-09-04T10:04:37.628Z,22.91
2022-09-04T10:07:43.793Z,23.30
2022-09-04T10:10:45.844Z,23.51
2022-09-04T10:13:36.277Z,23.47
2022-09-04T10:16:34.756Z,23.44
2022-09-04T10:19:31.287Z,23.74
2022-09-04T10:22:43.483Z,23.88
2022-09-04T10:25:56.380Z,24.36
2022-09-04T10:28:35.268Z,24.44
2022-09-04T10:31:26.899Z,24.18
2022-09-04T10:34:24.158Z,24.46
2022-09-04T10:37:02.027Z,24.40
2022-09-04T10:39:57.008Z,24.53
2022-09-04T10:42:35.738Z,24.67
2022-09-04T10:45:17.680Z,24.96
2022-09-04T10:48:05.620Z,24.83
2022-09-04T10:50:57.375Z,25.00
2022-09-04T10:53:40.484Z,25.13
2022-09-04T10:56:18.207Z,25.05
2022-09-04T10:59:21.235Z,25.06
2022-09-04T11:02:29.909Z,24.87
2022-09-04T11:05:20.358Z,25.17
2022-09-04T11:08:13.766Z,25.29
2022-09-04T11:10:58.039Z,24.96
2022-09-04T11:13:51.461Z,25.49
2022-09-04T11:16:36.578Z,25.15
2022-09-04T11:19:46.892Z,25.22
2022-09-04T11:22:44.562Z,25.57
2022-09-04T11:25:33.123Z,25.26
2022-09-04T11:28:20.417Z,25.38
2022-09-04T11:31:00.359Z,25.25
2022-09-04T11:34:02.989Z,25.42
2022-09-04T11:37:16.258Z,25.40
2022-09-04T11:39:57.023Z,25.53
2022-09-04T11:42:41.144Z,25.72
2022-09-04T11:45:38.748Z,25.95
2022-09-04T11:48:32.280Z,25.97
2022-09-04T11:51:19.203Z,25.80
2022-09-04T11:54:08.607Z,25.60
2022-09-04T11:56:55.284Z,25.75
2022-09-04T11:59:58.195Z,25.63
2022-09-04T12:02:50.559Z,25.85
2022-09-04T12:05:24.729Z,26.21
2022-09-04T12:08:05.203Z,26.36
2022-09-04T12:10:43.077Z,26.07
2022-09-04T12:13:40.081Z,26.10
2022-09-04T12:16:27.757Z,26.10
2022-09-04T12:19:29.558Z,26.45
2022-09-04T12:22:44.838Z,26.36
2022-09-04T12:25:29.875Z,26.37
2022-09-04T12:28:26.633Z,26.47
2022-09-04T12:31:04.739Z,26.62
2022-09-04T12:34:02.592Z,26.93
2022-09-04T12:37:01.096Z,26.92
2022-09-04T12:39:56.883Z,26.64
2022-09-04T12:42:30.091Z,26.72
2022-09-04T12:45:05.054Z,27.10
2022-09-04T12:47:42.471Z,27.34
2022-09-04T12:50:19.315Z,27.28
2022-09-04T12:53:10.325Z,26.83
2022-09-04T12:55:45.756Z,26.96
2022-09-04T12:58:22.223Z,27.11
2022-09-04T13:00:57.826Z,26.91
2022-09-04T13:03:30.715Z,26.75
2022-09-04T13:06:07.703Z,27.08
2022-09-04T13:08:43.843Z,26.81
2022-09-04T13:11:25.038Z,26.71
2022-09-04T13:14:05.363Z,26.57
2022-09-04T13:16:37.490Z,26.97
2022-09-04T13:19:13.566Z,26.99
2022-09-04T13:21:59.490Z,27.17
2022-09-04T13:24:44.060Z,27.08
2022-09-04T13:27:26.566Z,27.06
2022-09-04T13:30:06.832Z,27.13
2022-09-04T13:32:48.189Z,26.98
2022-09-04T13:35:22.228Z,27.00
2022-09-04T13:38:04.100Z,27.47
2022-09-04T13:40:43.251Z,27.93
2022-09-04T13:43:42.888Z,27.46
2022-09-04T13:46:14.758Z,27.70
2022-09-04T13:48:44.074Z,27.58
2022-09-04T13:51:15.729Z,27.80
2022-09-04T13:53:55.446Z,27.45
2022-09-04T13:56:29.329Z,27.82
2022-09-04T13:59:00.191Z,27.56
2022-09-04T14:01:29.633Z,27.63
2022-09-04T14:04:00.403Z,27.69
2022-09-04T14:06:31.407Z,27.89
2022-09-04T14:09:05.291Z,27.97
2022-09-04T14:12:02.420Z,28.03
2022-09-04T14:14:51.375Z,28.04
2022-09-04T14:17:26.860Z,27.74
2022-09-04T14:19:59.809Z,27.82
2022-09-04T14:22:38.271Z,28.04
2022-09-04T14:25:12.335Z,27.93
2022-09-04T14:27:49.097Z,27.73
2022-09-04T14:30:18.056Z,27.79
2022-09-04T14:33:05.459Z,27.80
2022-09-04T14:35:37.788Z,28.08
2022-09-04T14:38:29.180Z,28.00
2022-09-04T14:41:03.370Z,28.01
2022-09-04T14:43:41.330Z,28.05
2022-09-04T14:46:15.624Z,27.73
2022-09-04T14:48:48.460Z,27.53
2022-09-04T14:51:18.164Z,27.69
2022-09-04T14:53:50.463Z,28.03
2022-09-04T14:56:26.196Z,27.60
2022-09-04T14:58:56.590Z,27.78
2022-09-04T15:01:25.385Z,28.00
2022-09-04T15:03:58.065Z,27.98
2022-09-04T15:06:32.512Z,27.71
2022-09-04T15:09:17.053Z,27.84
2022-09-04T15:11:44.673Z,27.36
2022-09-04T15:14:28.447Z,27.78
2022-09-04T15:17:00.125Z,27.50
2022-09-04T15:19:40.817Z,27.17
2022-09-04T15:22:12.598Z,27.11
2022-09-04T15:24:51.680Z,27.44
2022-09-04T15:27:23.534Z,27.34
2022-09-04T15:30:02.168Z,27.59
2022-09-04T15:32:33.080Z,27.43
2022-09-04T15:35:12.665Z,27.86
2022-09-04T15:37:40.549Z,27.46
2022-09-04T15:40:12.079Z,27.53
2022-09-04T15:42:45.527Z,27.56
2022-09-04T15:45:21.251Z,27.56
2022-09-04T15:48:09.031Z,27.50
2022-09-04T15:50:41.411Z,27.57
2022-09-04T15:53:16.988Z,27.65
2022-09-04T15:55:46.850Z,27.31
2022-09-04T15:58:17.499Z,27.16
2022-09-04T16:01:08.143Z,27.22
2022-09-04T16:03:38.173Z,27.46
2022-09-04T16:06:13.893Z,27.12
2022-09-04T16:08:46.352Z,27.32
2022-09-04T16:11:23.215Z,27.33
2022-09-04T16:13:58.458Z,27.17
2022-09-04T16:16:29.875Z,26.95
2022-09-04T16:19:04.267Z,26.80
2022-09-04T16:21:41.202Z,26.68
2022-09-04T16:24:14.135Z,26.53
2022-09-04T16:26:41.951Z,26.51
2022-09-04T16:29:15.809Z,26.69
2022-09-04T16:31:52.283Z,26.78
2022-09-04T16:34:24.235Z,26.85
2022-09-04T16:37:01.683Z,26.79
2022-09-04T16:39:36.226Z,26.75
2022-09-04T16:42:13.750Z,26.71
2022-09-04T16:44:44.311Z,26.64
2022-09-04T16:47:16.398Z,26.40
2022-09-04T16:49:51.492Z,26.47
2022-09-04T16:52:44.681Z,26.43
2022-09-04T16:55:15.896Z,26.30
2022-09-04T16:57:49.524Z,26.16
2022-09-04T17:00:17.609Z,26.02
2022-09-04T17:02:48.728Z,25.83
2022-09-04T17:05:23.509Z,25.77
2022-09-04T17:08:02.972Z,25.65
2022-09-04T17:10:42.195Z,25.55
2022-09-04T17:13:16.239Z,25.43
2022-09-04T17:15:53.577Z,25.35
2022-09-04T17:18:23.447Z,25.25
2022-09-04T17:23:44.365Z,25.21
2022-09-04T17:28:58.279Z,25.14
2022-09-04T17:29:08.803Z,25.07
2022-09-04T17:29:40.545Z,25.06
2022-09-04T17:32:28.313Z,24.98
2022-09-04T17:40:32.781Z,24.88
2022-09-04T17:40:55.608Z,24.79
2022-09-04T17:41:39.509Z,24.73
2022-09-04T17:44:14.255Z,24.66
2022-09-04T17:46:45.674Z,24.60
2022-09-04T17:49:17.443Z,24.54
2022-09-04T17:51:50.163Z,24.47
2022-09-04T17:54:23.001Z,24.40
2022-09-04T17:56:58.015Z,24.35
2022-09-04T17:59:30.421Z,24.33
2022-09-04T18:02:02.552Z,24.23
2022-09-04T18:04:38.456Z,24.09
2022-09-04T18:07:46.327Z,23.97
2022-09-04T18:10:08.388Z,23.81
2022-09-04T18:12:43.125Z,23.65
2022-09-04T18:15:33.386Z,23.49
2022-09-04T18:18:09.355Z,23.31
2022-09-04T18:20:40.262Z,23.27
2022-09-04T18:23:18.832Z,23.23
2022-09-04T18:25:50.724Z,23.19
2022-09-04T18:28:25.977Z,23.14
2022-09-04T18:37:12.942Z,23.08
2022-09-04T18:37:18.791Z,23.06
2022-09-04T18:37:21.860Z,23.00
2022-09-04T18:39:52.159Z,23.00
2022-09-04T18:50:23.981Z,22.95
2022-09-04T18:50:36.799Z,22.64
2022-09-04T18:50:52.096Z,22.83
2022-09-04T18:51:21.126Z,22.47
2022-09-04T18:53:52.514Z,22.38
2022-09-04T18:56:23.362Z,22.37
2022-09-04T18:58:58.823Z,22.43
2022-09-04T19:01:29.903Z,22.40
2022-09-04T19:03:59.770Z,22.37
2022-09-04T19:06:33.614Z,22.37
2022-09-04T19:09:03.614Z,22.42
2022-09-04T19:11:32.783Z,22.44
2022-09-04T19:14:10.319Z,22.49
2022-09-04T19:16:43.874Z,22.49
2022-09-04T19:19:17.931Z,22.51
2022-09-04T19:21:58.442Z,22.54
2022-09-04T19:24:32.092Z,22.54
2022-09-04T19:27:25.100Z,22.57
2022-09-04T19:30:03.538Z,22.49
2022-09-04T19:33:00.263Z,22.42
2022-09-04T19:35:34.999Z,22.34
2022-09-04T19:41:00.175Z,22.29
2022-09-04T19:46:00.358Z,22.46
2022-09-04T19:46:02.657Z,22.21
2022-09-04T19:46:45.150Z,22.31
2022-09-04T19:50:30.958Z,22.44
2022-09-04T19:53:30.287Z,22.20
2022-09-04T19:55:23.629Z,22.33
2022-09-04T19:57:54.092Z,22.29
2022-09-04T20:00:42.141Z,22.04
2022-09-04T20:03:29.708Z,22.00
2022-09-04T20:06:20.194Z,21.93
2022-09-04T20:08:54.316Z,21.96
2022-09-04T20:11:35.114Z,22.00
2022-09-04T20:14:14.340Z,22.04
2022-09-04T20:16:49.384Z,21.87
2022-09-04T20:19:23.527Z,21.97
2022-09-04T20:22:00.952Z,21.73
2022-09-04T20:24:36.328Z,21.71
2022-09-04T20:27:10.422Z,21.47
2022-09-04T20:29:41.290Z,21.62
2022-09-04T20:32:14.432Z,21.34
2022-09-04T20:34:48.298Z,21.25
2022-09-04T20:37:28.605Z,21.13
2022-09-04T20:40:12.882Z,21.27
2022-09-04T20:42:43.791Z,21.06
2022-09-04T20:52:37.614Z,21.04
2022-09-04T20:52:52.229Z,20.88
2022-09-04T20:52:56.430Z,20.70
2022-09-04T20:54:28.166Z,20.58
2022-09-04T20:58:28.225Z,20.47
2022-09-04T21:03:07.473Z,20.29
2022-09-04T21:03:17.495Z,20.52
2022-09-04T21:05:50.730Z,20.39
2022-09-04T21:08:34.062Z,20.15
2022-09-04T21:11:14.735Z,20.14
2022-09-04T21:13:56.658Z,20.16
2022-09-04T21:16:34.229Z,20.25
2022-09-04T21:19:29.146Z,20.15
2022-09-04T21:22:17.275Z,20.05
2022-09-04T21:25:10.931Z,20.34
2022-09-04T21:27:57.075Z,20.20
2022-09-04T21:30:54.594Z,20.10
2022-09-04T21:33:27.805Z,20.27
2022-09-04T21:36:25.635Z,20.05
2022-09-04T21:39:26.756Z,19.93
2022-09-04T21:42:17.269Z,19.91
2022-09-04T21:45:09.272Z,19.86
2022-09-04T21:47:51.296Z,19.84
2022-09-04T21:50:36.424Z,19.83
2022-09-04T21:53:18.180Z,19.88
2022-09-04T21:58:41.219Z,19.74
2022-09-04T22:02:36.515Z,19.57
2022-09-04T22:02:38.832Z,19.69
2022-09-04T22:05:05.868Z,19.65
2022-09-04T22:10:15.529Z,19.47
2022-09-04T22:13:31.880Z,19.55
2022-09-04T22:13:47.845Z,19.62
2022-09-04T22:16:29.433Z,19.48
2022-09-04T22:19:17.039Z,19.29
2022-09-04T22:22:03.203Z,19.35
2022-09-04T22:25:07.729Z,19.34
2022-09-04T22:28:07.458Z,19.54
2022-09-04T22:30:56.836Z,19.40
2022-09-04T22:34:16.590Z,19.18
2022-09-04T22:37:00.823Z,19.33
2022-09-04T22:39:53.461Z,19.45
2022-09-04T22:42:37.611Z,19.20
2022-09-04T22:45:23.935Z,19.33
2022-09-04T22:48:05.141Z,19.32
2022-09-04T22:50:50.265Z,19.21
2022-09-04T22:53:39.832Z,19.33
2022-09-04T22:56:25.070Z,19.11
2022-09-04T22:59:26.516Z,19.13
2022-09-04T23:03:06.680Z,19.18
2022-09-04T23:05:37.455Z,19.21
2022-09-04T23:13:47.405Z,19.30
2022-09-04T23:13:56.344Z,19.09
2022-09-04T23:14:32.227Z,19.11
2022-09-04T23:17:18.075Z,19.20
2022-09-04T23:25:14.070Z,19.13
2022-09-04T23:26:48.653Z,19.20
2022-09-04T23:27:00.100Z,19.06
2022-09-04T23:29:45.292Z,18.83
2022-09-04T23:32:34.425Z,18.66
2022-09-04T23:35:16.639Z,18.82
2022-09-04T23:38:19.274Z,18.71
2022-09-04T23:40:51.103Z,18.76
2022-09-04T23:43:45.575Z,18.83
2022-09-04T23:46:42.564Z,18.99
2022-09-04T23:49:36.997Z,19.03
2022-09-04T23:52:11.483Z,18.98
2022-09-04T23:54:55.469Z,18.82
2022-09-04T23:57:28.365Z,18.85
